Time;durP1;ratioP1;P1;durP2;ratioP2;P2;SDS_P1;SDS_P2;PMS_P1;PMS_P2;Temp;Humidity;BMP_temperature;BMP_pressure;BME280_temperature;BME280_humidity;BME280_pressure;Samples;Min_cycle;Max_cycle;Signal;HPM_P1;HPM_P2
2022/09/24 00:01:35;;;;;;;5.03;3.90;;;12.90;99.90;;;;;;10456644;28;20237;-74
2022/09/24 00:06:43;;;;;;;6.07;3.87;;;12.90;99.90;;;;;;10457119;28;20229;-75
2022/09/24 00:11:44;;;;;;;4.23;3.83;;;12.90;99.90;;;;;;10443530;28;20326;-77
2022/09/24 00:16:45;;;;;;;4.67;3.83;;;12.80;99.90;;;;;;10451780;28;20215;-75
2022/09/24 00:21:46;;;;;;;4.90;4.27;;;12.80;99.90;;;;;;10485780;28;20219;-75
2022/09/24 00:26:49;;;;;;;7.00;3.97;;;12.70;99.90;;;;;;10463550;28;20310;-75
2022/09/24 00:31:51;;;;;;;5.97;4.03;;;12.80;99.90;;;;;;10461796;28;20298;-74
2022/09/24 00:36:52;;;;;;;5.93;4.23;;;12.80;99.90;;;;;;10476512;28;20221;-75
2022/09/24 00:41:53;;;;;;;4.53;3.93;;;12.70;99.90;;;;;;10477809;28;20215;-72
2022/09/24 00:46:54;;;;;;;6.10;3.80;;;12.70;99.90;;;;;;10489916;28;20223;-75
2022/09/24 00:51:55;;;;;;;5.43;4.20;;;12.70;99.90;;;;;;10478424;28;20208;-73
2022/09/24 00:57:03;;;;;;;4.37;3.97;;;12.60;99.90;;;;;;10490438;28;20215;-77
2022/09/24 01:02:04;;;;;;;6.10;4.23;;;12.50;99.90;;;;;;10457966;28;20219;-82
2022/09/24 01:07:04;;;;;;;5.00;4.50;;;12.60;99.90;;;;;;10472403;28;20231;-83
2022/09/24 01:12:27;;;;;;;5.10;4.60;;;12.60;99.90;;;;;;10476846;28;20302;-76
2022/09/24 01:18:00;;;;;;;5.23;4.40;;;12.60;99.90;;;;;;10486199;28;20242;-78
2022/09/24 01:23:19;;;;;;;4.80;4.20;;;12.40;99.90;;;;;;10480117;28;20300;-79
2022/09/24 01:28:26;;;;;;;5.90;4.47;;;12.30;99.90;;;;;;10484988;28;20228;-80
2022/09/24 01:33:29;;;;;;;5.27;4.50;;;12.20;99.90;;;;;;10495062;28;20253;-77
2022/09/24 01:38:37;;;;;;;7.83;5.00;;;12.00;99.90;;;;;;10497233;28;20227;-79
2022/09/24 01:43:42;;;;;;;8.70;5.33;;;11.80;99.90;;;;;;10480504;28;20799;-80
2022/09/24 01:48:44;;;;;;;7.07;5.20;;;11.70;99.90;;;;;;10471310;28;20215;-81
2022/09/24 01:54:02;;;;;;;6.17;5.13;;;11.60;99.90;;;;;;10477416;28;20731;-81
2022/09/24 01:59:06;;;;;;;6.83;5.00;;;11.40;99.90;;;;;;10467496;28;20216;-80
2022/09/24 02:04:12;;;;;;;5.37;4.83;;;11.30;99.90;;;;;;10473072;28;20231;-80
2022/09/24 02:09:36;;;;;;;7.73;5.40;;;11.20;99.90;;;;;;10481048;28;20303;-81
2022/09/24 02:14:43;;;;;;;6.00;5.40;;;11.10;99.90;;;;;;10468189;28;20878;-80
2022/09/24 02:19:47;;;;;;;6.47;5.73;;;11.00;99.90;;;;;;10474114;28;20211;-81
2022/09/24 02:24:57;;;;;;;7.67;5.93;;;10.90;99.90;;;;;;10466110;28;20235;-79
2022/09/24 02:29:58;;;;;;;7.07;6.37;;;10.80;99.90;;;;;;10480531;28;20223;-75
2022/09/24 02:35:04;;;;;;;6.50;5.83;;;10.70;99.90;;;;;;10481615;28;20220;-75
2022/09/24 02:40:07;;;;;;;6.90;6.07;;;10.70;99.90;;;;;;10469519;28;20231;-77
2022/09/24 02:45:10;;;;;;;7.93;6.50;;;10.60;99.90;;;;;;10472887;28;20204;-78
2022/09/24 02:50:11;;;;;;;7.33;6.40;;;10.60;99.90;;;;;;10475548;28;20183;-78
2022/09/24 02:55:11;;;;;;;9.10;7.40;;;10.50;99.90;;;;;;10496281;28;20179;-83
2022/09/24 03:00:13;;;;;;;7.93;7.10;;;10.50;99.90;;;;;;10464778;28;20254;-82
2022/09/24 03:05:17;;;;;;;8.13;6.90;;;10.50;99.90;;;;;;10470565;28;20238;-78
2022/09/24 03:10:17;;;;;;;8.40;7.50;;;10.40;99.90;;;;;;10460083;28;20625;-80
2022/09/24 03:15:18;;;;;;;9.33;7.30;;;10.40;99.90;;;;;;10469668;28;20271;-80
2022/09/24 03:20:19;;;;;;;11.63;6.83;;;10.30;99.90;;;;;;10480680;28;20180;-82
2022/09/24 03:25:20;;;;;;;7.57;6.43;;;10.20;99.90;;;;;;10494443;28;20215;-81
2022/09/24 03:35:42;;;;;;;7.77;6.37;;;10.00;99.90;;;;;;10478513;28;20228;-81
2022/09/24 03:40:43;;;;;;;8.40;7.27;;;10.00;99.90;;;;;;10488787;28;20207;-82
2022/09/24 03:45:44;;;;;;;7.33;6.63;;;10.00;99.90;;;;;;10486783;28;20254;-81
2022/09/24 03:50:45;;;;;;;8.83;7.40;;;10.00;99.90;;;;;;10469052;28;20597;-84
2022/09/24 03:55:54;;;;;;;8.93;6.90;;;10.10;99.90;;;;;;10469323;28;20690;-78
2022/09/24 04:00:56;;;;;;;8.37;6.63;;;10.20;99.90;;;;;;10462909;28;20226;-80
2022/09/24 04:05:56;;;;;;;8.53;6.77;;;10.30;99.90;;;;;;10467650;28;20234;-79
2022/09/24 04:10:57;;;;;;;7.97;6.47;;;10.40;99.90;;;;;;10477919;28;20215;-77
2022/09/24 04:16:04;;;;;;;7.60;6.03;;;10.40;99.90;;;;;;10481127;28;20231;-75
2022/09/24 04:21:05;;;;;;;8.17;5.97;;;10.40;99.90;;;;;;10485762;28;20222;-77
2022/09/24 04:26:05;;;;;;;6.40;5.80;;;10.40;99.90;;;;;;10484446;28;20292;-78
2022/09/24 04:31:06;;;;;;;8.07;6.70;;;10.30;99.90;;;;;;10475724;28;20225;-81
2022/09/24 04:36:07;;;;;;;9.10;6.53;;;10.30;99.90;;;;;;10483697;28;20219;-80
2022/09/24 04:41:08;;;;;;;9.47;7.30;;;10.30;99.90;;;;;;10467974;28;20222;-77
2022/09/24 04:46:09;;;;;;;8.40;7.50;;;10.30;99.90;;;;;;10470378;28;20275;-81
2022/09/24 04:51:10;;;;;;;8.20;7.33;;;10.20;99.90;;;;;;10473962;28;20222;-76
2022/09/24 04:56:10;;;;;;;10.03;8.73;;;10.10;99.90;;;;;;10482820;28;20243;-78
2022/09/24 05:01:12;;;;;;;9.27;8.10;;;10.10;99.90;;;;;;10476405;28;20708;-76
2022/09/24 05:06:12;;;;;;;9.50;8.03;;;10.00;99.90;;;;;;10497693;28;20232;-76
2022/09/24 05:11:13;;;;;;;9.17;7.97;;;9.90;99.90;;;;;;10455790;28;20223;-79
2022/09/24 05:16:17;;;;;;;8.40;7.50;;;9.90;99.90;;;;;;10461139;28;20298;-79
2022/09/24 05:21:18;;;;;;;9.07;7.90;;;9.80;99.90;;;;;;10486686;28;20725;-79
2022/09/24 05:31:41;;;;;;;10.57;8.87;;;9.80;99.90;;;;;;10486586;28;20215;-79
2022/09/24 05:36:43;;;;;;;10.30;8.63;;;9.90;99.90;;;;;;10462022;28;20633;-82
2022/09/24 05:41:44;;;;;;;12.17;8.90;;;10.00;99.90;;;;;;10484725;28;20222;-79
2022/09/24 05:46:44;;;;;;;12.07;10.00;;;10.20;99.90;;;;;;10488269;28;20238;-81
2022/09/24 05:51:47;;;;;;;12.03;9.50;;;10.50;99.90;;;;;;10480007;28;20208;-81
2022/09/24 05:56:48;;;;;;;13.37;9.43;;;10.80;99.90;;;;;;10481076;28;20707;-80
2022/09/24 06:01:49;;;;;;;10.37;8.33;;;11.20;99.90;;;;;;10473997;28;20211;-81
2022/09/24 06:06:51;;;;;;;11.43;8.60;;;11.50;99.90;;;;;;10473086;28;20227;-81
2022/09/24 06:11:53;;;;;;;15.80;7.73;;;11.80;99.90;;;;;;10468038;28;20228;-80
2022/09/24 06:16:55;;;;;;;11.40;9.33;;;12.00;99.90;;;;;;10467939;28;20212;-76
2022/09/24 06:21:56;;;;;;;10.80;8.33;;;12.20;99.90;;;;;;10489371;28;20278;-76
2022/09/24 06:26:57;;;;;;;11.13;8.17;;;12.50;99.90;;;;;;10485086;28;20219;-79
2022/09/24 06:32:00;;;;;;;9.63;8.33;;;12.80;99.90;;;;;;10478622;28;20223;-81
2022/09/24 06:37:01;;;;;;;8.77;7.87;;;13.10;99.90;;;;;;10474870;28;20224;-82
2022/09/24 06:42:02;;;;;;;11.97;8.23;;;13.50;99.90;;;;;;10479203;28;20219;-80
2022/09/24 06:47:02;;;;;;;10.03;8.30;;;13.70;99.90;;;;;;10476988;28;20795;-77
2022/09/24 06:52:03;;;;;;;12.07;9.47;;;13.90;99.90;;;;;;10492668;28;20217;-76
2022/09/24 06:57:05;;;;;;;9.93;8.10;;;13.90;99.90;;;;;;10478794;28;20307;-78
2022/09/24 07:02:09;;;;;;;11.90;7.87;;;14.00;99.90;;;;;;10480381;28;20236;-75
2022/09/24 07:12:30;;;;;;;8.13;7.00;;;14.50;99.90;;;;;;10487723;28;20625;-78
2022/09/24 07:17:30;;;;;;;11.90;8.50;;;14.90;99.90;;;;;;10457653;28;20225;-78
2022/09/24 07:22:36;;;;;;;10.30;7.73;;;15.40;99.90;;;;;;10466310;28;20804;-83
2022/09/24 07:33:41;;;;;;;9.13;7.43;;;16.10;99.90;;;;;;10326311;28;20218;-79
2022/09/24 07:38:42;;;;;;;6.97;6.27;;;16.80;99.90;;;;;;10458377;28;20296;-81
2022/09/24 07:43:44;;;;;;;6.70;6.07;;;19.00;99.90;;;;;;10477662;28;20240;-82
2022/09/24 07:48:47;;;;;;;8.93;7.87;;;20.90;99.90;;;;;;10476304;28;20215;-79
2022/09/24 07:53:47;;;;;;;7.10;5.37;;;20.70;99.90;;;;;;10469336;28;20218;-78
2022/09/24 07:58:52;;;;;;;7.67;6.87;;;20.80;99.90;;;;;;10467103;28;20605;-71
2022/09/24 08:03:53;;;;;;;7.03;6.33;;;20.80;99.90;;;;;;10489142;28;20219;-69
2022/09/24 08:08:55;;;;;;;7.93;6.40;;;20.60;99.90;;;;;;10480635;28;20207;-70
2022/09/24 08:13:56;;;;;;;8.10;7.13;;;20.40;99.90;;;;;;10474731;28;20682;-72
2022/09/24 08:18:57;;;;;;;9.27;6.73;;;20.10;99.90;;;;;;10486637;28;20546;-71
2022/09/24 08:23:57;;;;;;;7.80;6.57;;;19.90;99.90;;;;;;10494176;28;20219;-72
2022/09/24 08:28:58;;;;;;;10.97;6.97;;;19.70;99.90;;;;;;10476438;28;20744;-70
2022/09/24 08:34:00;;;;;;;8.20;7.23;;;19.80;99.90;;;;;;10484574;28;20218;-71
2022/09/24 08:39:00;;;;;;;8.73;7.30;;;19.70;99.90;;;;;;10475974;28;20246;-72
2022/09/24 08:47:21;;;;;;;10.87;7.10;;;19.30;99.90;;;;;;10476391;28;20659;-70
2022/09/24 08:49:45;;;;;;;10.43;6.90;;;19.00;99.90;;;;;;10473379;28;20219;-72
2022/09/24 08:54:48;;;;;;;8.47;7.57;;;18.50;99.90;;;;;;10493621;28;20310;-71
2022/09/24 08:59:51;;;;;;;11.83;6.77;;;18.40;99.90;;;;;;10452584;28;1100386;-71
2022/09/24 09:05:05;;;;;;;12.87;7.50;;;18.40;99.90;;;;;;10465298;28;20233;-71
2022/09/24 09:10:37;;;;;;;8.70;7.77;;;18.20;99.90;;;;;;10506331;28;20210;-70
2022/09/24 09:15:46;;;;;;;9.57;6.87;;;18.00;99.90;;;;;;10476852;28;20238;-74
2022/09/24 09:20:48;;;;;;;10.03;8.50;;;18.00;99.90;;;;;;10467601;28;20317;-75
2022/09/24 09:25:54;;;;;;;8.80;7.60;;;17.80;99.90;;;;;;10468504;28;20246;-73
2022/09/24 09:31:09;;;;;;;7.20;6.50;;;17.70;99.90;;;;;;10466634;28;20709;-73
2022/09/24 09:36:34;;;;;;;7.97;7.23;;;18.00;99.90;;;;;;10499499;28;20709;-73
2022/09/24 09:41:47;;;;;;;8.53;7.23;;;18.50;99.90;;;;;;10491553;28;20290;-75
2022/09/24 09:46:56;;;;;;;14.83;8.60;;;19.10;99.90;;;;;;10477108;28;20615;-73
2022/09/24 09:52:01;;;;;;;10.27;6.77;;;20.50;99.90;;;;;;10473834;28;20223;-72
2022/09/24 09:57:02;;;;;;;7.33;5.23;;;24.70;98.80;;;;;;10471267;28;20233;-75
2022/09/24 10:02:10;;;;;;;10.97;6.30;;;29.50;73.80;;;;;;10456072;28;20226;-72
2022/09/24 10:07:13;;;;;;;9.57;7.03;;;32.40;51.80;;;;;;10473043;28;20692;-72
2022/09/24 10:12:15;;;;;;;9.13;6.10;;;32.60;46.40;;;;;;10493284;28;20306;-73
2022/09/24 10:17:18;;;;;;;11.33;7.63;;;28.80;52.40;;;;;;10463036;28;20601;-74
2022/09/24 10:22:23;;;;;;;9.37;7.73;;;25.50;59.60;;;;;;10467254;28;20222;-73
2022/09/24 10:27:34;;;;;;;9.47;7.90;;;23.90;64.90;;;;;;10494561;28;20570;-72
2022/09/24 10:32:35;;;;;;;10.53;7.93;;;22.60;71.20;;;;;;10495247;28;20219;-75
2022/09/24 10:37:36;;;;;;;11.43;7.20;;;22.00;75.50;;;;;;10489855;28;20281;-72
2022/09/24 10:42:37;;;;;;;8.33;6.20;;;21.80;76.90;;;;;;10490953;28;20571;-75
2022/09/24 10:47:52;;;;;;;8.30;6.00;;;21.90;78.20;;;;;;10480775;28;20230;-73
2022/09/24 10:53:21;;;;;;;6.83;5.27;;;22.40;77.90;;;;;;10483453;28;20728;-71
2022/09/24 10:58:45;;;;;;;10.67;6.83;;;23.20;74.00;;;;;;10482134;28;20619;-71
2022/09/24 11:04:17;;;;;;;5.80;5.13;;;24.00;70.00;;;;;;10473872;28;20223;-73
2022/09/24 11:09:47;;;;;;;6.03;5.10;;;24.20;68.90;;;;;;10494768;28;20217;-73
2022/09/24 11:14:54;;;;;;;7.80;5.47;;;24.90;66.00;;;;;;10483819;28;20313;-73
2022/09/24 11:20:17;;;;;;;8.87;5.20;;;25.40;63.40;;;;;;10477450;28;20269;-73
2022/09/24 11:25:45;;;;;;;6.50;4.00;;;24.70;62.50;;;;;;10474043;28;20236;-71
2022/09/24 11:31:11;;;;;;;8.23;4.87;;;23.70;66.20;;;;;;10462781;28;20223;-72
2022/09/24 11:36:17;;;;;;;4.27;3.87;;;23.30;67.30;;;;;;10474902;28;20808;-72
2022/09/24 11:41:38;;;;;;;7.27;4.77;;;23.10;69.00;;;;;;10479420;28;20211;-71
2022/09/24 11:46:50;;;;;;;5.33;4.00;;;23.00;69.70;;;;;;10479803;28;20234;-72
2022/09/24 11:51:54;;;;;;;5.47;4.07;;;22.90;70.80;;;;;;10484285;28;20254;-72
2022/09/24 11:57:20;;;;;;;5.23;4.00;;;22.80;71.60;;;;;;10486885;28;20215;-72
2022/09/24 12:02:33;;;;;;;7.33;5.07;;;22.70;72.30;;;;;;10488554;28;20703;-72
2022/09/24 12:07:42;;;;;;;6.90;4.77;;;22.40;74.10;;;;;;10478616;28;20227;-72
2022/09/24 12:12:48;;;;;;;5.73;5.13;;;22.40;74.60;;;;;;10473394;28;20225;-72
2022/09/24 12:18:32;;;;;;;10.27;5.50;;;22.80;73.30;;;;;;10471310;28;20232;-72
2022/09/24 12:23:44;;;;;;;7.00;5.43;;;22.90;73.00;;;;;;10361178;28;20807;-72
2022/09/24 12:34:59;;;;;;;8.70;6.23;;;22.90;72.20;;;;;;10484444;28;20216;-72
2022/09/24 12:40:28;;;;;;;7.53;5.30;;;23.10;70.80;;;;;;10498792;28;20689;-71
2022/09/24 12:45:32;;;;;;;7.83;4.90;;;23.10;72.20;;;;;;10463261;28;20242;-71
2022/09/24 12:50:35;;;;;;;9.23;6.00;;;23.40;69.30;;;;;;10472983;28;20232;-71
2022/09/24 12:55:36;;;;;;;8.67;5.80;;;22.80;70.90;;;;;;10485739;28;20276;-71
2022/09/24 13:00:37;;;;;;;11.17;5.63;;;21.90;72.80;;;;;;10484951;28;20238;-72
2022/09/24 13:05:44;;;;;;;3.60;3.30;;;21.60;74.40;;;;;;10490036;28;20783;-72
2022/09/24 13:10:55;;;;;;;5.73;4.33;;;21.80;76.00;;;;;;10496733;28;20219;-72
2022/09/24 13:16:05;;;;;;;4.13;3.40;;;22.20;74.10;;;;;;10484545;28;20219;-71
2022/09/24 13:21:07;;;;;;;4.40;3.10;;;22.20;72.10;;;;;;10471172;28;20682;-72
2022/09/24 13:26:32;;;;;;;5.67;3.60;;;22.20;71.00;;;;;;10485412;28;20296;-71
2022/09/24 13:31:54;;;;;;;6.73;4.80;;;21.90;72.60;;;;;;10493556;28;20226;-72
2022/09/24 13:37:19;;;;;;;11.07;5.80;;;21.80;75.50;;;;;;10491410;28;20270;-71
2022/09/24 13:42:45;;;;;;;9.10;5.60;;;22.00;76.80;;;;;;10489951;28;20302;-73
2022/09/24 13:47:49;;;;;;;12.63;5.80;;;21.90;78.30;;;;;;10484431;28;20251;-72
2022/09/24 13:53:16;;;;;;;6.43;4.83;;;21.50;79.70;;;;;;10492748;28;20214;-72
2022/09/24 13:58:31;;;;;;;7.97;4.53;;;21.10;82.00;;;;;;10474525;28;20218;-73
2022/09/24 14:03:34;;;;;;;7.53;4.50;;;20.80;82.70;;;;;;10482041;28;20233;-72
2022/09/24 14:08:35;;;;;;;6.37;4.87;;;20.70;82.90;;;;;;10471542;28;20246;-74
2022/09/24 14:13:44;;;;;;;5.47;4.40;;;20.60;83.80;;;;;;10473117;28;20257;-74
2022/09/24 14:18:45;;;;;;;10.80;5.00;;;20.30;86.80;;;;;;10474853;28;20239;-74
2022/09/24 14:23:48;;;;;;;4.87;4.37;;;20.10;90.00;;;;;;10483085;28;20252;-73
2022/09/24 14:28:49;;;;;;;6.43;4.90;;;20.10;90.50;;;;;;10485327;28;20222;-74
2022/09/24 14:33:50;;;;;;;5.80;5.20;;;20.30;91.30;;;;;;10488324;28;20226;-74
2022/09/24 14:38:55;;;;;;;9.60;5.37;;;20.30;92.10;;;;;;10474244;28;20215;-70
2022/09/24 14:44:05;;;;;;;6.43;5.00;;;20.20;93.00;;;;;;10476660;28;20226;-71
2022/09/24 14:49:29;;;;;;;6.50;4.97;;;20.20;93.90;;;;;;10475306;28;20626;-71
2022/09/24 14:54:41;;;;;;;7.00;4.77;;;20.30;94.40;;;;;;10477143;28;20217;-72
2022/09/24 14:59:43;;;;;;;9.10;5.20;;;20.30;94.70;;;;;;10472633;28;20226;-72
2022/09/24 15:04:49;;;;;;;6.03;4.60;;;20.30;95.20;;;;;;10494884;28;20229;-72
2022/09/24 15:09:59;;;;;;;7.87;3.97;;;20.30;95.80;;;;;;10481472;28;20222;-72
2022/09/24 15:15:19;;;;;;;7.87;4.93;;;20.20;96.10;;;;;;10483516;28;20297;-74
2022/09/24 15:20:20;;;;;;;8.37;4.60;;;20.20;97.00;;;;;;10470939;28;20677;-72
2022/09/24 15:25:20;;;;;;;8.80;5.40;;;20.20;97.20;;;;;;10472680;28;20265;-73
2022/09/24 15:30:22;;;;;;;5.93;4.70;;;20.10;98.00;;;;;;10470106;28;20691;-74
2022/09/24 15:35:23;;;;;;;8.07;4.53;;;20.10;98.70;;;;;;10475882;28;20191;-73
2022/09/24 15:40:25;;;;;;;7.73;4.37;;;20.10;99.30;;;;;;10492195;28;20686;-74
2022/09/24 15:45:25;;;;;;;6.83;5.00;;;20.00;99.80;;;;;;10473569;28;20603;-73
2022/09/24 15:50:26;;;;;;;8.10;4.43;;;20.00;99.90;;;;;;10481359;28;20226;-74
2022/09/24 15:55:28;;;;;;;8.13;5.13;;;19.80;99.90;;;;;;10473076;28;20630;-74
2022/09/24 16:00:29;;;;;;;6.63;4.53;;;19.60;99.90;;;;;;10481756;28;20795;-74
2022/09/24 16:05:29;;;;;;;6.97;4.80;;;19.40;99.90;;;;;;10471333;28;20287;-74
2022/09/24 16:10:30;;;;;;;6.80;4.90;;;19.20;99.90;;;;;;10497267;28;20230;-75
2022/09/24 16:15:30;;;;;;;8.40;5.20;;;18.90;99.90;;;;;;10491259;28;20316;-75
2022/09/24 16:20:32;;;;;;;8.87;4.90;;;18.80;99.90;;;;;;10468645;28;20241;-75
2022/09/24 16:25:33;;;;;;;7.67;4.83;;;18.70;99.90;;;;;;10490451;28;20247;-73
2022/09/24 16:30:35;;;;;;;6.23;4.87;;;18.50;99.90;;;;;;10494038;28;20227;-74
2022/09/24 16:35:36;;;;;;;10.63;4.97;;;18.30;99.90;;;;;;10471709;28;20833;-73
2022/09/24 16:40:36;;;;;;;8.47;4.73;;;18.20;99.90;;;;;;10492444;28;20234;-73
2022/09/24 16:45:37;;;;;;;5.63;4.97;;;18.00;99.90;;;;;;10487761;28;20883;-74
2022/09/24 16:50:38;;;;;;;6.60;4.83;;;17.90;99.90;;;;;;10499793;28;20229;-75
2022/09/24 16:55:39;;;;;;;5.93;4.90;;;17.80;99.90;;;;;;10487038;28;20234;-72
2022/09/24 17:00:43;;;;;;;6.80;4.80;;;17.70;99.90;;;;;;10483066;28;20278;-74
2022/09/24 17:05:43;;;;;;;5.70;4.97;;;17.60;99.90;;;;;;10480775;28;20232;-74
2022/09/24 17:10:51;;;;;;;7.77;5.23;;;17.50;99.90;;;;;;10490691;28;20340;-72
2022/09/24 17:15:51;;;;;;;6.30;5.47;;;17.30;99.90;;;;;;10482011;28;20221;-74
2022/09/24 17:21:13;;;;;;;7.07;5.33;;;17.30;99.90;;;;;;10491324;28;20220;-74
2022/09/24 17:26:17;;;;;;;8.67;5.53;;;17.10;99.90;;;;;;10495868;28;20723;-73
2022/09/24 17:31:21;;;;;;;8.37;6.10;;;17.00;99.90;;;;;;10470715;28;20224;-73
2022/09/24 17:36:22;;;;;;;7.93;6.10;;;16.80;99.90;;;;;;10492179;28;20231;-72
2022/09/24 17:41:23;;;;;;;10.47;6.60;;;16.80;99.90;;;;;;10473407;28;20319;-75
2022/09/24 17:46:29;;;;;;;14.80;9.20;;;16.70;99.90;;;;;;10476142;28;20315;-74
2022/09/24 17:51:33;;;;;;;9.93;7.90;;;16.60;99.90;;;;;;10489467;28;20228;-73
2022/09/24 17:56:37;;;;;;;8.07;6.60;;;16.60;99.90;;;;;;10477818;28;20227;-74
2022/09/24 18:01:39;;;;;;;10.67;8.03;;;16.50;99.90;;;;;;10469533;28;20261;-74
2022/09/24 18:06:42;;;;;;;9.73;8.30;;;16.50;99.90;;;;;;10484496;28;20343;-74
2022/09/24 18:11:45;;;;;;;8.40;6.87;;;16.40;99.90;;;;;;10470741;28;20344;-75
2022/09/24 18:16:47;;;;;;;8.63;6.57;;;16.40;99.90;;;;;;10470919;28;20358;-74
2022/09/24 18:21:48;;;;;;;11.33;6.50;;;16.30;99.90;;;;;;10468743;28;20228;-73
2022/09/24 18:26:51;;;;;;;5.30;4.30;;;16.40;99.90;;;;;;10503143;28;20232;-75
2022/09/24 18:31:51;;;;;;;4.27;3.00;;;16.30;99.90;;;;;;10481578;28;20288;-76
2022/09/24 18:36:52;;;;;;;3.83;2.57;;;16.20;99.90;;;;;;10471076;28;20264;-74
2022/09/24 18:41:52;;;;;;;3.63;2.60;;;15.90;99.90;;;;;;10464302;28;20734;-73
2022/09/24 18:46:53;;;;;;;4.87;2.73;;;15.70;99.90;;;;;;10475866;28;20223;-75
2022/09/24 18:51:54;;;;;;;3.90;2.40;;;15.50;99.90;;;;;;10471408;28;20261;-74
2022/09/24 18:56:54;;;;;;;2.70;2.50;;;15.30;99.90;;;;;;10481076;28;20222;-74
2022/09/24 19:01:55;;;;;;;5.13;3.17;;;15.20;99.90;;;;;;10476821;28;20239;-74
2022/09/24 19:06:56;;;;;;;6.13;2.90;;;15.10;99.90;;;;;;10487143;28;20225;-73
2022/09/24 19:11:57;;;;;;;11.73;5.20;;;15.00;99.90;;;;;;10465251;28;20221;-75
2022/09/24 19:16:58;;;;;;;7.13;4.13;;;14.90;99.90;;;;;;10477287;28;20214;-74
2022/09/24 19:21:59;;;;;;;5.73;3.30;;;14.80;99.90;;;;;;10477952;28;20254;-74
2022/09/24 19:27:01;;;;;;;4.80;2.80;;;14.80;99.90;;;;;;10470673;28;20302;-74
2022/09/24 19:32:02;;;;;;;2.53;2.33;;;14.80;99.90;;;;;;10482077;28;20220;-75
2022/09/24 19:37:02;;;;;;;4.17;2.33;;;14.70;99.90;;;;;;10491673;28;20228;-75
2022/09/24 19:42:03;;;;;;;2.40;2.10;;;14.70;99.90;;;;;;10486476;28;20219;-76
2022/09/24 19:47:03;;;;;;;2.77;2.13;;;14.70;99.90;;;;;;10494109;28;20570;-73
2022/09/24 19:52:04;;;;;;;2.40;2.20;;;14.50;99.90;;;;;;10494367;28;20228;-74
2022/09/24 19:57:05;;;;;;;2.33;2.13;;;14.60;99.90;;;;;;10470771;28;20238;-73
2022/09/24 20:02:05;;;;;;;3.07;2.50;;;14.60;99.90;;;;;;10472659;28;20278;-73
2022/09/24 20:07:06;;;;;;;32.67;16.97;;;14.60;99.90;;;;;;10476392;28;20242;-74
2022/09/24 20:12:07;;;;;;;6.60;4.43;;;14.70;99.90;;;;;;10479456;28;20280;-74
2022/09/24 20:17:08;;;;;;;3.60;2.70;;;14.80;99.90;;;;;;10469783;28;20282;-75
2022/09/24 20:22:09;;;;;;;4.87;2.67;;;14.90;99.90;;;;;;10488731;28;20229;-73
2022/09/24 20:32:36;;;;;;;2.77;2.43;;;14.80;99.90;;;;;;10480755;28;20225;-74
2022/09/24 20:37:37;;;;;;;3.17;2.60;;;14.70;99.90;;;;;;10472014;28;20622;-73
2022/09/24 20:42:38;;;;;;;5.83;3.53;;;14.70;99.90;;;;;;10469497;28;20313;-74
2022/09/24 20:47:38;;;;;;;4.73;3.80;;;14.60;99.90;;;;;;10476981;28;20229;-74
2022/09/24 20:52:39;;;;;;;4.20;3.80;;;14.60;99.90;;;;;;10483898;28;20566;-73
2022/09/24 20:57:49;;;;;;;3.80;3.27;;;14.50;99.90;;;;;;10498421;28;20282;-74
2022/09/24 21:02:50;;;;;;;3.73;3.20;;;14.50;99.90;;;;;;10487624;28;20237;-73
2022/09/24 21:07:50;;;;;;;5.77;4.00;;;14.50;99.90;;;;;;10483359;28;20222;-75
2022/09/24 21:12:51;;;;;;;4.60;3.70;;;14.60;99.90;;;;;;10484149;28;20563;-74
2022/09/24 21:17:52;;;;;;;4.40;3.63;;;14.50;99.90;;;;;;10472602;28;20234;-74
2022/09/24 21:22:52;;;;;;;5.67;4.00;;;14.40;99.90;;;;;;10475122;28;20218;-75
2022/09/24 21:27:55;;;;;;;7.03;4.10;;;14.30;99.90;;;;;;10492487;28;20306;-74
2022/09/24 21:32:56;;;;;;;8.77;4.17;;;14.30;99.90;;;;;;10440412;28;20720;-74
2022/09/24 21:37:56;;;;;;;6.77;4.40;;;14.20;99.90;;;;;;10490153;28;20210;-74
2022/09/24 21:42:59;;;;;;;5.93;4.30;;;14.20;99.90;;;;;;10485810;28;20281;-74
2022/09/24 21:47:59;;;;;;;8.10;4.70;;;14.10;99.90;;;;;;10466420;28;20228;-75
2022/09/24 21:53:01;;;;;;;8.03;4.77;;;14.10;99.90;;;;;;10477710;28;20216;-75
2022/09/24 21:58:02;;;;;;;5.87;4.87;;;14.00;99.90;;;;;;10459914;28;20228;-74
2022/09/24 22:03:02;;;;;;;7.70;5.50;;;14.00;99.90;;;;;;10469188;28;20219;-72
2022/09/24 22:08:05;;;;;;;7.70;5.37;;;14.00;99.90;;;;;;10471424;28;20720;-72
2022/09/24 22:13:08;;;;;;;5.77;4.70;;;14.10;99.90;;;;;;10486538;28;20384;-72
2022/09/24 22:18:11;;;;;;;6.80;5.30;;;14.00;99.90;;;;;;10478868;28;20903;-72
2022/09/24 22:23:12;;;;;;;5.97;5.37;;;14.00;99.90;;;;;;10472994;28;20713;-73
2022/09/24 22:28:13;;;;;;;8.97;5.80;;;14.00;99.90;;;;;;10458867;28;20283;-73
2022/09/24 22:35:46;;;;;;;5.70;5.20;;;14.00;99.90;;;;;;10487477;28;20219;-70
2022/09/24 22:38:34;;;;;;;10.47;6.90;;;14.00;99.90;;;;;;10470438;28;20225;-72
2022/09/24 22:43:35;;;;;;;10.10;6.13;;;13.90;99.90;;;;;;10472293;28;20299;-72
2022/09/24 22:48:36;;;;;;;8.50;6.13;;;13.90;99.90;;;;;;10477305;28;20318;-73
2022/09/24 22:53:38;;;;;;;7.90;6.10;;;13.80;99.90;;;;;;10492350;28;20217;-72
2022/09/24 22:58:40;;;;;;;7.40;5.87;;;13.80;99.90;;;;;;10458607;28;20699;-71
2022/09/24 23:03:41;;;;;;;7.27;6.33;;;13.90;99.90;;;;;;10476494;28;20226;-72
2022/09/24 23:08:45;;;;;;;9.83;6.20;;;13.90;99.90;;;;;;10474584;28;20229;-73
2022/09/24 23:13:54;;;;;;;7.37;5.97;;;13.90;99.90;;;;;;10464582;28;20235;-72
2022/09/24 23:18:59;;;;;;;6.77;5.67;;;13.90;99.90;;;;;;10469041;28;20285;-73
2022/09/24 23:24:03;;;;;;;8.33;6.17;;;13.90;99.90;;;;;;10469178;28;20224;-74
2022/09/24 23:29:04;;;;;;;7.80;6.90;;;13.90;99.90;;;;;;10469848;28;20225;-72
2022/09/24 23:34:06;;;;;;;8.43;7.30;;;13.90;99.90;;;;;;10468360;28;20219;-75
2022/09/24 23:39:07;;;;;;;9.10;7.50;;;13.90;99.90;;;;;;10466292;28;20229;-74
2022/09/24 23:44:07;;;;;;;7.93;6.97;;;13.90;99.90;;;;;;10468993;28;20220;-74
2022/09/24 23:49:11;;;;;;;8.27;6.97;;;13.80;99.90;;;;;;10476440;28;20219;-72
2022/09/24 23:54:15;;;;;;;7.73;6.87;;;13.80;99.90;;;;;;10479775;28;20218;-72
2022/09/24 23:59:15;;;;;;;8.00;6.77;;;13.80;99.90;;;;;;10475536;28;20273;-76
